createdAt,value
2023-10-23T00:00:30.032Z,75.63
2023-10-23T00:02:57.351Z,75.62
2023-10-23T00:05:24.904Z,75.51
2023-10-23T00:07:52.124Z,75.54
2023-10-23T00:10:19.244Z,75.97
2023-10-23T00:12:46.340Z,76.29
2023-10-23T00:15:14.269Z,75.47
2023-10-23T00:17:41.472Z,75.85
2023-10-23T00:20:09.709Z,76.54
2023-10-23T00:22:36.952Z,76.41
2023-10-23T00:25:05.152Z,76.63
2023-10-23T00:27:32.555Z,76.21
2023-10-23T00:30:01.591Z,76.59
2023-10-23T00:32:33.426Z,76.07
2023-10-23T00:35:00.864Z,76.06
2023-10-23T00:37:27.946Z,76.04
2023-10-23T00:39:55.209Z,76.69
2023-10-23T00:42:22.467Z,76.18
2023-10-23T00:44:49.867Z,75.89
2023-10-23T00:47:18.191Z,76.25
2023-10-23T00:49:46.021Z,76.03
2023-10-23T00:52:13.141Z,75.97
2023-10-23T00:54:41.183Z,75.59
2023-10-23T00:57:09.215Z,75.69
2023-10-23T00:59:36.406Z,75.69
2023-10-23T01:02:05.584Z,76.69
2023-10-23T01:04:32.709Z,76.12
2023-10-23T01:06:59.790Z,76.55
2023-10-23T01:09:27.272Z,75.98
2023-10-23T01:11:54.396Z,76.47
2023-10-23T01:14:21.479Z,76.76
2023-10-23T01:16:48.572Z,76.93
2023-10-23T01:19:15.744Z,77.00
2023-10-23T01:21:43.999Z,76.88
2023-10-23T01:24:12.766Z,76.68
2023-10-23T01:26:39.935Z,76.87
2023-10-23T01:29:07.112Z,76.07
2023-10-23T01:31:35.014Z,76.31
2023-10-23T01:34:02.168Z,76.40
2023-10-23T01:36:29.579Z,76.50
2023-10-23T01:38:56.932Z,76.56
2023-10-23T01:41:24.220Z,75.62
2023-10-23T01:43:52.022Z,75.99
2023-10-23T01:46:20.583Z,76.08
2023-10-23T01:48:47.883Z,75.96
2023-10-23T01:51:16.159Z,75.36
2023-10-23T01:53:43.177Z,75.40
2023-10-23T01:56:10.361Z,75.06
2023-10-23T01:58:37.594Z,75.75
2023-10-23T02:01:04.933Z,75.44
2023-10-23T02:03:33.351Z,75.06
2023-10-23T02:06:00.642Z,74.57
2023-10-23T02:08:27.697Z,75.11
2023-10-23T02:10:54.991Z,74.92
2023-10-23T02:13:22.114Z,74.31
2023-10-23T02:15:49.236Z,74.74
2023-10-23T02:18:17.086Z,74.39
2023-10-23T02:20:45.520Z,74.48
2023-10-23T02:23:12.880Z,74.98
2023-10-23T02:25:39.957Z,74.60
2023-10-23T02:28:07.167Z,74.82
2023-10-23T02:30:37.143Z,74.83
2023-10-23T02:33:04.269Z,75.48
2023-10-23T02:35:35.791Z,75.59
2023-10-23T02:38:04.127Z,74.84
2023-10-23T02:40:31.625Z,74.52
2023-10-23T02:42:58.787Z,74.66
2023-10-23T02:45:26.525Z,74.25
2023-10-23T02:47:54.753Z,74.63
2023-10-23T02:50:23.515Z,74.79
2023-10-23T02:52:50.583Z,74.46
2023-10-23T02:55:18.293Z,75.07
2023-10-23T02:57:46.851Z,74.73
2023-10-23T03:00:14.716Z,74.74
2023-10-23T03:02:44.784Z,74.82
2023-10-23T03:05:12.912Z,74.71
2023-10-23T03:07:40.107Z,75.29
2023-10-23T03:10:10.000Z,74.67
2023-10-23T03:12:39.917Z,74.59
2023-10-23T03:15:09.138Z,74.80
2023-10-23T03:17:36.432Z,74.66
2023-10-23T03:20:05.194Z,74.96
2023-10-23T03:22:33.851Z,75.45
2023-10-23T03:25:01.011Z,75.72
2023-10-23T03:27:31.986Z,75.67
2023-10-23T03:29:59.467Z,76.46
2023-10-23T03:32:27.941Z,76.00
2023-10-23T03:34:55.061Z,75.58
2023-10-23T03:37:22.246Z,76.53
2023-10-23T03:39:51.222Z,76.64
2023-10-23T03:42:18.491Z,76.15
2023-10-23T03:44:45.634Z,76.10
2023-10-23T03:47:12.702Z,76.05
2023-10-23T03:49:40.052Z,75.89
2023-10-23T03:52:07.359Z,75.67
2023-10-23T03:54:34.474Z,76.28
2023-10-23T03:57:01.540Z,76.49
2023-10-23T03:59:28.626Z,76.38
2023-10-23T04:01:55.694Z,76.22
2023-10-23T04:04:22.944Z,75.90
2023-10-23T04:06:50.180Z,76.36
2023-10-23T04:09:17.283Z,76.25
2023-10-23T04:11:44.498Z,76.89
2023-10-23T04:14:11.556Z,77.34
2023-10-23T04:16:40.465Z,76.87
2023-10-23T04:19:07.735Z,77.04
2023-10-23T04:21:40.392Z,77.43
2023-10-23T04:24:08.775Z,77.00
2023-10-23T04:26:38.345Z,77.57
2023-10-23T04:29:06.144Z,77.80
2023-10-23T04:31:33.233Z,77.62
2023-10-23T04:34:00.460Z,78.05
2023-10-23T04:36:27.821Z,77.63
2023-10-23T04:38:54.856Z,77.77
2023-10-23T04:41:21.971Z,77.43
2023-10-23T04:43:49.046Z,77.44
2023-10-23T04:46:16.261Z,77.49
2023-10-23T04:48:43.458Z,77.89
2023-10-23T04:51:10.617Z,77.94
2023-10-23T04:53:37.773Z,78.16
2023-10-23T04:56:07.900Z,77.83
2023-10-23T04:58:35.191Z,78.24
2023-10-23T05:01:02.472Z,78.63
2023-10-23T05:03:31.309Z,78.64
2023-10-23T05:05:58.578Z,78.82
2023-10-23T05:08:25.787Z,78.96
2023-10-23T05:10:52.805Z,78.46
2023-10-23T05:13:19.955Z,78.45
2023-10-23T05:15:48.233Z,78.05
2023-10-23T05:18:15.463Z,78.27
2023-10-23T05:20:42.589Z,79.13
2023-10-23T05:23:09.671Z,79.13
2023-10-23T05:25:37.737Z,78.69
2023-10-23T05:28:05.141Z,78.63
2023-10-23T05:30:32.656Z,78.48
2023-10-23T05:32:59.954Z,79.03
2023-10-23T05:35:27.055Z,79.14
2023-10-23T05:37:54.302Z,79.00
2023-10-23T05:40:21.390Z,78.11
2023-10-23T05:42:48.480Z,78.48
2023-10-23T05:45:15.745Z,78.34
2023-10-23T05:47:42.850Z,78.81
2023-10-23T05:50:10.225Z,78.75
2023-10-23T05:52:37.334Z,79.17
2023-10-23T05:55:05.980Z,79.09
2023-10-23T05:57:33.310Z,78.72
2023-10-23T06:00:00.637Z,78.73
2023-10-23T06:02:28.680Z,78.78
2023-10-23T06:04:55.795Z,78.94
2023-10-23T06:07:23.067Z,78.27
2023-10-23T06:09:50.256Z,78.32
2023-10-23T06:12:17.364Z,77.37
2023-10-23T06:14:44.432Z,77.85
2023-10-23T06:17:11.458Z,77.33
2023-10-23T06:19:38.656Z,77.28
2023-10-23T06:22:06.068Z,76.45
2023-10-23T06:24:33.295Z,76.54
2023-10-23T06:27:19.184Z,76.91
2023-10-23T06:29:46.368Z,76.27
2023-10-23T06:32:14.531Z,76.24
2023-10-23T06:34:41.669Z,76.92
2023-10-23T06:37:08.808Z,76.67
2023-10-23T06:39:36.911Z,77.07
2023-10-23T06:42:04.308Z,76.86
2023-10-23T06:44:31.474Z,76.54
2023-10-23T06:46:58.650Z,76.56
2023-10-23T06:49:25.717Z,76.43
2023-10-23T06:51:52.838Z,76.32
2023-10-23T06:54:22.858Z,76.30
2023-10-23T06:56:50.186Z,76.34
2023-10-23T06:59:17.352Z,75.54
2023-10-23T07:06:05.352Z,75.90
2023-10-23T07:08:41.118Z,76.05
2023-10-23T07:11:20.083Z,75.37
2023-10-23T07:13:54.722Z,75.67
2023-10-23T07:16:30.849Z,75.51
2023-10-23T07:18:58.079Z,75.41
2023-10-23T07:21:27.229Z,75.15
2023-10-23T07:23:54.470Z,75.20
2023-10-23T07:26:21.555Z,74.69
2023-10-23T07:28:49.010Z,75.16
2023-10-23T07:31:16.145Z,75.21
2023-10-23T07:33:44.022Z,74.57
2023-10-23T07:36:13.604Z,74.40
2023-10-23T07:38:43.125Z,73.81
2023-10-23T07:41:11.277Z,73.43
2023-10-23T07:43:38.465Z,74.03
2023-10-23T07:46:15.588Z,73.80
2023-10-23T07:48:46.307Z,73.67
2023-10-23T07:51:13.988Z,73.55
2023-10-23T07:53:41.580Z,73.95
2023-10-23T07:56:08.740Z,73.50
2023-10-23T07:58:35.969Z,73.00
2023-10-23T08:01:08.099Z,73.22
2023-10-23T08:03:36.531Z,72.94
2023-10-23T08:06:05.308Z,72.98
2023-10-23T08:08:35.324Z,73.00
2023-10-23T08:11:07.622Z,73.00
2023-10-23T08:13:35.535Z,72.12
2023-10-23T08:16:05.134Z,72.18
2023-10-23T08:21:16.564Z,72.20
2023-10-23T08:23:48.099Z,71.98
2023-10-23T08:26:15.607Z,71.84
2023-10-23T08:31:24.739Z,71.98
2023-10-23T08:33:57.687Z,72.13
2023-10-23T08:36:25.044Z,72.07
2023-10-23T08:38:52.200Z,72.00
2023-10-23T08:41:19.301Z,72.05
2023-10-23T08:43:46.437Z,71.98
2023-10-23T08:46:13.617Z,71.92
2023-10-23T08:48:40.785Z,72.19
2023-10-23T08:51:08.822Z,72.42
2023-10-23T08:53:49.267Z,72.48
2023-10-23T08:56:23.270Z,71.99
2023-10-23T08:58:57.682Z,72.06
2023-10-23T09:01:26.051Z,71.77
2023-10-23T09:04:03.724Z,72.46
2023-10-23T09:06:32.027Z,72.35
2023-10-23T09:08:59.585Z,71.59
2023-10-23T09:11:43.094Z,71.82
2023-10-23T09:14:10.667Z,71.23
2023-10-23T09:16:39.215Z,71.94
2023-10-23T09:19:06.566Z,72.29
2023-10-23T09:21:34.956Z,71.80
2023-10-23T09:24:04.859Z,72.32
2023-10-23T09:26:32.795Z,72.23
2023-10-23T09:28:59.858Z,72.38
2023-10-23T09:31:27.800Z,72.15
2023-10-23T09:33:55.287Z,72.18
2023-10-23T09:36:22.660Z,72.34
2023-10-23T09:39:01.698Z,73.12
2023-10-23T09:41:29.374Z,73.84
2023-10-23T09:44:02.040Z,72.68
2023-10-23T09:46:30.458Z,72.48
2023-10-23T09:49:02.159Z,72.08
2023-10-23T09:51:31.673Z,72.51
2023-10-23T09:54:00.870Z,72.79
2023-10-23T09:56:35.750Z,72.51
2023-10-23T09:59:05.827Z,72.42
2023-10-23T10:01:37.732Z,72.40
2023-10-23T10:04:22.271Z,71.59
2023-10-23T10:07:01.440Z,72.23
2023-10-23T10:09:30.249Z,72.24
2023-10-23T10:11:58.393Z,72.53
2023-10-23T10:14:26.577Z,72.51
2023-10-23T10:16:56.804Z,72.08
2023-10-23T10:19:28.142Z,72.44
2023-10-23T10:22:08.009Z,71.97
2023-10-23T10:24:37.165Z,72.29
2023-10-23T10:27:05.256Z,72.17
2023-10-23T10:29:32.562Z,71.68
2023-10-23T10:32:13.447Z,72.18
2023-10-23T10:34:47.303Z,72.51
2023-10-23T10:39:52.061Z,72.22
2023-10-23T10:42:26.629Z,72.26
2023-10-23T10:44:54.427Z,72.34
2023-10-23T10:47:22.758Z,73.32
2023-10-23T10:49:52.185Z,72.32
2023-10-23T10:52:29.889Z,72.39
2023-10-23T10:55:10.200Z,72.24
2023-10-23T10:57:43.818Z,71.96
2023-10-23T11:00:13.414Z,72.35
2023-10-23T11:02:41.742Z,72.21
2023-10-23T11:05:13.851Z,72.18
2023-10-23T11:07:41.293Z,72.12
2023-10-23T11:10:09.858Z,72.75
2023-10-23T11:12:37.356Z,72.99
2023-10-23T11:15:06.276Z,73.13
2023-10-23T11:17:34.089Z,72.69
2023-10-23T11:20:07.298Z,72.38
2023-10-23T11:22:34.470Z,72.79
2023-10-23T11:25:01.712Z,72.57
2023-10-23T11:27:31.072Z,72.68
2023-10-23T11:29:58.357Z,72.08
2023-10-23T11:32:25.507Z,72.42
2023-10-23T11:34:52.610Z,72.16
2023-10-23T11:37:20.577Z,72.14
2023-10-23T11:39:48.903Z,72.90
2023-10-23T11:42:16.935Z,72.49
2023-10-23T11:44:44.275Z,72.47
2023-10-23T11:47:11.535Z,72.41
2023-10-23T11:49:39.007Z,72.44
2023-10-23T11:52:06.663Z,72.15
2023-10-23T11:54:33.914Z,72.64
2023-10-23T11:57:01.539Z,73.24
2023-10-23T11:59:28.804Z,72.79
2023-10-23T12:01:57.911Z,73.01
2023-10-23T12:04:25.641Z,73.11
2023-10-23T12:06:53.005Z,73.48
2023-10-23T12:09:20.166Z,73.44
2023-10-23T12:11:47.343Z,73.71
2023-10-23T12:14:14.417Z,73.75
2023-10-23T12:16:42.127Z,74.22
2023-10-23T12:19:11.155Z,73.91
2023-10-23T12:21:38.618Z,74.19
2023-10-23T12:24:07.937Z,74.71
2023-10-23T12:26:35.573Z,75.05
2023-10-23T12:29:06.558Z,75.44
2023-10-23T12:32:01.342Z,75.65
2023-10-23T12:34:21.640Z,75.23
2023-10-23T12:36:49.013Z,75.56
2023-10-23T12:39:16.200Z,75.96
2023-10-23T12:41:43.378Z,76.36
2023-10-23T12:44:10.626Z,76.41
2023-10-23T12:46:37.762Z,76.49
2023-10-23T12:49:05.699Z,76.60
2023-10-23T12:51:32.991Z,76.99
2023-10-23T12:54:00.139Z,76.92
2023-10-23T12:56:28.239Z,76.54
2023-10-23T12:58:55.434Z,77.04
2023-10-23T13:01:22.629Z,77.20
2023-10-23T13:03:49.874Z,76.76
2023-10-23T13:06:18.458Z,77.07
2023-10-23T13:08:45.654Z,77.23
2023-10-23T13:11:13.012Z,76.86
2023-10-23T13:13:40.116Z,76.87
2023-10-23T13:16:07.365Z,76.88
2023-10-23T13:18:34.602Z,76.46
2023-10-23T13:21:30.154Z,76.50
2023-10-23T13:23:52.616Z,76.92
2023-10-23T13:26:20.016Z,76.43
2023-10-23T13:28:49.318Z,76.48
2023-10-23T13:31:33.808Z,76.83
2023-10-23T13:34:01.330Z,77.06
2023-10-23T13:36:31.900Z,76.68
2023-10-23T13:38:59.163Z,77.01
2023-10-23T13:41:27.337Z,77.26
2023-10-23T13:43:54.566Z,77.27
2023-10-23T13:46:21.952Z,76.78
2023-10-23T13:48:52.868Z,76.59
2023-10-23T13:51:20.027Z,77.16
2023-10-23T13:53:47.116Z,76.72
2023-10-23T13:56:14.507Z,76.68
2023-10-23T13:58:41.539Z,76.63
2023-10-23T14:01:08.705Z,76.68
2023-10-23T14:03:36.324Z,76.17
2023-10-23T14:06:03.461Z,76.72
2023-10-23T14:09:38.773Z,75.95
2023-10-23T14:11:57.637Z,75.86
2023-10-23T14:14:05.247Z,75.30
2023-10-23T14:16:32.435Z,75.75
2023-10-23T14:18:59.562Z,75.49
2023-10-23T14:21:26.742Z,75.09
2023-10-23T14:23:53.786Z,75.11
2023-10-23T14:26:20.930Z,75.06
2023-10-23T14:28:48.125Z,74.66
2023-10-23T14:31:15.697Z,74.66
2023-10-23T14:33:43.571Z,74.45
2023-10-23T14:36:16.098Z,74.16
2023-10-23T14:38:44.161Z,74.62
2023-10-23T14:41:11.339Z,74.25
2023-10-23T14:43:38.581Z,74.70
2023-10-23T14:46:06.996Z,74.29
2023-10-23T14:48:34.215Z,74.67
2023-10-23T14:51:01.655Z,74.33
2023-10-23T14:53:30.344Z,73.67
2023-10-23T14:55:57.509Z,73.49
2023-10-23T14:58:24.814Z,72.76
2023-10-23T15:00:51.958Z,73.00
2023-10-23T15:03:19.083Z,72.71
2023-10-23T15:05:46.146Z,72.36
2023-10-23T15:08:13.437Z,71.93
2023-10-23T15:10:40.474Z,72.12
2023-10-23T15:13:07.698Z,71.57
2023-10-23T15:15:34.983Z,72.38
2023-10-23T15:18:02.341Z,72.22
2023-10-23T15:20:30.989Z,72.29
2023-10-23T15:22:59.829Z,72.08
2023-10-23T15:25:27.855Z,71.68
2023-10-23T15:27:55.021Z,71.79
2023-10-23T15:30:22.133Z,72.22
2023-10-23T15:32:49.293Z,72.42
2023-10-23T15:35:16.651Z,72.36
2023-10-23T15:37:44.189Z,72.27
2023-10-23T15:40:11.773Z,71.94
2023-10-23T15:42:42.179Z,72.21
2023-10-23T15:45:09.858Z,71.83
2023-10-23T15:47:37.099Z,71.51
2023-10-23T15:50:04.701Z,70.90
2023-10-23T15:52:31.999Z,71.06
2023-10-23T15:54:59.231Z,70.73
2023-10-23T15:57:26.479Z,70.21
2023-10-23T15:59:53.720Z,70.54
2023-10-23T16:02:21.257Z,70.98
2023-10-23T16:04:48.987Z,70.58
2023-10-23T16:07:16.420Z,70.12
2023-10-23T16:09:43.709Z,69.89
2023-10-23T16:12:10.843Z,70.47
2023-10-23T16:14:53.610Z,69.74
2023-10-23T16:17:29.595Z,69.78
2023-10-23T16:19:56.708Z,69.13
2023-10-23T16:22:24.399Z,69.66
2023-10-23T16:24:51.460Z,69.38
2023-10-23T16:27:18.766Z,69.67
2023-10-23T16:29:50.674Z,69.39
2023-10-23T16:32:24.138Z,69.95
2023-10-23T16:34:54.409Z,70.11
2023-10-23T16:37:23.027Z,70.23
2023-10-23T16:39:51.278Z,69.82
2023-10-23T16:42:18.514Z,69.49
2023-10-23T16:44:55.330Z,69.95
2023-10-23T16:47:24.276Z,69.92
2023-10-23T16:49:53.805Z,69.53
2023-10-23T16:52:23.696Z,69.61
2023-10-23T16:54:53.997Z,69.80
2023-10-23T16:57:24.351Z,69.69
2023-10-23T16:59:55.340Z,69.38
2023-10-23T17:02:27.175Z,69.42
2023-10-23T17:04:55.186Z,69.21
2023-10-23T17:07:28.374Z,69.60
2023-10-23T17:09:56.926Z,69.81
2023-10-23T17:12:24.233Z,69.20
2023-10-23T17:14:52.407Z,68.48
2023-10-23T17:17:23.667Z,68.41
2023-10-23T17:19:53.240Z,68.73
2023-10-23T17:22:22.511Z,68.49
2023-10-23T17:24:50.155Z,68.30
2023-10-23T17:27:21.993Z,68.54
2023-10-23T17:29:49.278Z,68.48
2023-10-23T17:32:17.818Z,68.54
2023-10-23T17:34:48.033Z,68.39
2023-10-23T17:37:16.503Z,68.71
2023-10-23T17:39:46.981Z,68.79
2023-10-23T17:42:17.655Z,68.88
2023-10-23T17:44:47.368Z,68.81
2023-10-23T17:47:16.912Z,69.17
2023-10-23T17:49:46.009Z,68.53
2023-10-23T17:52:13.205Z,68.06
2023-10-23T17:54:41.800Z,68.10
2023-10-23T17:57:16.362Z,67.74
2023-10-23T17:59:44.779Z,68.12
2023-10-23T18:02:12.155Z,68.45
2023-10-23T18:04:47.066Z,69.18
2023-10-23T18:07:16.511Z,68.95
2023-10-23T18:09:46.533Z,69.75
2023-10-23T18:12:31.186Z,69.03
2023-10-23T18:15:06.541Z,69.01
2023-10-23T18:17:36.068Z,68.80
2023-10-23T18:20:07.142Z,68.36
2023-10-23T18:22:36.500Z,68.02
2023-10-23T18:25:04.951Z,68.78
2023-10-23T18:27:34.561Z,68.93
2023-10-23T18:30:04.729Z,69.61
2023-10-23T18:32:35.592Z,69.16
2023-10-23T18:35:04.264Z,68.64
2023-10-23T18:37:35.192Z,68.79
2023-10-23T18:40:02.399Z,68.70
2023-10-23T18:42:33.344Z,67.69
2023-10-23T18:45:01.081Z,67.71
2023-10-23T18:47:29.140Z,68.31
2023-10-23T18:49:56.457Z,68.08
2023-10-23T18:52:24.085Z,67.99
2023-10-23T18:54:51.313Z,68.14
2023-10-23T18:57:18.615Z,69.12
2023-10-23T19:02:39.199Z,67.43
2023-10-23T19:05:06.981Z,68.16
2023-10-23T19:07:34.416Z,68.19
2023-10-23T19:10:01.873Z,68.28
2023-10-23T19:12:30.811Z,68.22
2023-10-23T19:14:57.890Z,68.84
2023-10-23T19:17:39.652Z,69.04
2023-10-23T19:20:09.075Z,69.10
2023-10-23T19:22:37.284Z,67.46
2023-10-23T19:25:05.738Z,66.91
2023-10-23T19:27:33.214Z,67.77
2023-10-23T19:30:00.343Z,67.97
2023-10-23T19:32:27.794Z,67.96
2023-10-23T19:34:55.222Z,68.29
2023-10-23T19:37:24.124Z,67.56
2023-10-23T19:39:51.514Z,67.56
2023-10-23T19:42:19.317Z,67.50
2023-10-23T19:44:46.824Z,68.07
2023-10-23T19:47:16.450Z,67.52
2023-10-23T19:49:46.282Z,68.37
2023-10-23T19:52:15.377Z,68.25
2023-10-23T19:54:48.756Z,68.04
2023-10-23T19:57:17.635Z,67.83
2023-10-23T19:59:44.776Z,67.94
2023-10-23T20:02:17.980Z,68.40
2023-10-23T20:04:45.105Z,67.51
2023-10-23T20:07:12.244Z,67.29
2023-10-23T20:09:39.461Z,66.80
2023-10-23T20:12:06.852Z,67.21
2023-10-23T20:14:34.061Z,67.16
2023-10-23T20:17:01.330Z,67.34
2023-10-23T20:19:28.633Z,67.89
2023-10-23T20:21:58.329Z,67.52
2023-10-23T20:24:25.423Z,67.46
2023-10-23T20:26:52.485Z,68.32
2023-10-23T20:29:19.643Z,67.79
2023-10-23T20:31:46.968Z,67.85
2023-10-23T20:34:16.759Z,67.57
2023-10-23T20:36:43.806Z,66.96
2023-10-23T20:39:11.375Z,67.04
2023-10-23T20:41:38.466Z,67.30
2023-10-23T20:44:05.713Z,67.11
2023-10-23T20:46:32.928Z,67.56
2023-10-23T20:49:00.253Z,67.10
2023-10-23T20:51:27.439Z,67.69
2023-10-23T20:53:54.483Z,67.29
2023-10-23T20:56:21.720Z,67.16
2023-10-23T20:58:48.741Z,67.55
2023-10-23T21:01:16.311Z,67.46
2023-10-23T21:03:43.617Z,67.59
2023-10-23T21:06:10.839Z,66.97
2023-10-23T21:08:39.017Z,67.12
2023-10-23T21:11:07.448Z,67.58
2023-10-23T21:13:35.660Z,67.43
2023-10-23T21:16:03.067Z,67.82
2023-10-23T21:18:30.294Z,67.97
2023-10-23T21:20:57.461Z,67.66
2023-10-23T21:23:24.703Z,67.73
2023-10-23T21:25:51.959Z,67.73
2023-10-23T21:28:24.394Z,67.67
2023-10-23T21:30:51.587Z,67.47
2023-10-23T21:33:18.814Z,67.55
2023-10-23T21:35:45.983Z,67.65
2023-10-23T21:38:13.124Z,67.18
2023-10-23T21:40:40.325Z,66.83
2023-10-23T21:43:07.527Z,66.73
2023-10-23T21:45:34.755Z,66.78
2023-10-23T21:48:01.951Z,67.01
2023-10-23T21:50:32.184Z,66.67
2023-10-23T21:52:59.885Z,67.20
2023-10-23T21:55:27.453Z,67.19
2023-10-23T21:57:54.868Z,67.09
2023-10-23T22:00:29.027Z,66.86
2023-10-23T22:03:00.742Z,66.70
2023-10-23T22:05:29.769Z,67.50
2023-10-23T22:07:57.466Z,66.38
2023-10-23T22:10:26.686Z,67.74
2023-10-23T22:12:55.659Z,66.85
2023-10-23T22:15:23.483Z,67.13
2023-10-23T22:17:52.576Z,67.06
2023-10-23T22:20:20.198Z,67.46
2023-10-23T22:22:47.762Z,67.19
2023-10-23T22:25:15.053Z,67.05
2023-10-23T22:27:42.278Z,67.08
2023-10-23T22:30:09.686Z,66.96
2023-10-23T22:32:36.897Z,67.31
2023-10-23T22:35:07.209Z,67.67
2023-10-23T22:37:58.329Z,67.50
2023-10-23T22:40:22.259Z,67.40
2023-10-23T22:42:49.608Z,67.19
2023-10-23T22:45:16.821Z,67.36
2023-10-23T22:47:44.200Z,67.28
2023-10-23T22:50:12.129Z,67.38
2023-10-23T22:52:41.095Z,66.85
2023-10-23T22:55:09.639Z,66.55
2023-10-23T22:57:40.093Z,67.18
2023-10-23T23:00:10.512Z,66.51
2023-10-23T23:02:39.107Z,67.06
2023-10-23T23:05:07.433Z,66.51
2023-10-23T23:07:42.919Z,66.41
2023-10-23T23:10:11.021Z,66.33
2023-10-23T23:12:38.435Z,66.34
2023-10-23T23:15:06.878Z,66.42
2023-10-23T23:17:47.786Z,66.85
2023-10-23T23:20:15.607Z,67.24
2023-10-23T23:22:42.814Z,66.38
2023-10-23T23:25:10.188Z,65.78
2023-10-23T23:27:37.699Z,66.49
2023-10-23T23:30:05.563Z,65.91
2023-10-23T23:32:33.002Z,66.45
2023-10-23T23:35:00.501Z,65.62
2023-10-23T23:37:29.813Z,65.66
2023-10-23T23:39:57.213Z,65.93
2023-10-23T23:42:24.339Z,66.56
2023-10-23T23:44:51.489Z,65.67
2023-10-23T23:47:18.871Z,66.08
2023-10-23T23:49:47.028Z,66.57
2023-10-23T23:52:15.145Z,66.92
2023-10-23T23:54:42.819Z,66.25
2023-10-23T23:57:12.215Z,66.46
2023-10-23T23:59:39.674Z,65.93
